createdAt,value
2023-05-02T00:00:41.237Z,3.97
2023-05-02T00:04:40.793Z,4.1
2023-05-02T00:08:40.465Z,4.05
2023-05-02T00:12:40.422Z,4.35
2023-05-02T00:16:41.278Z,4.82
2023-05-02T00:20:40.481Z,4.43
2023-05-02T00:24:40.383Z,3.87
2023-05-02T00:28:40.430Z,4.32
2023-05-02T00:32:40.491Z,4.25
2023-05-02T00:36:40.400Z,4.32
2023-05-02T00:40:40.285Z,4.22
2023-05-02T00:44:40.752Z,4.55
2023-05-02T00:48:40.430Z,4.53
2023-05-02T00:52:40.487Z,4.32
2023-05-02T00:56:40.409Z,4.22
2023-05-02T01:00:40.800Z,3.85
2023-05-02T01:04:40.559Z,4.43
2023-05-02T01:08:40.540Z,4
2023-05-02T01:12:39.929Z,4.03
2023-05-02T01:16:41.389Z,4.62
2023-05-02T01:20:40.570Z,4.32
2023-05-02T01:24:40.210Z,4.3
2023-05-02T01:28:40.559Z,4.4
2023-05-02T01:32:40.466Z,4.1
2023-05-02T01:36:40.421Z,4.65
2023-05-02T01:40:39.573Z,4.68
2023-05-02T01:44:40.972Z,5.25
2023-05-02T01:48:40.212Z,4.85
2023-05-02T01:52:40.908Z,4.18
2023-05-02T01:56:40.660Z,4.68
2023-05-02T02:00:40.763Z,5.1
2023-05-02T02:04:40.990Z,5.1
2023-05-02T02:08:40.476Z,6.12
2023-05-02T02:12:40.739Z,5.3
2023-05-02T02:16:40.461Z,4.72
2023-05-02T02:20:40.360Z,5.05
2023-05-02T02:24:40.022Z,6.05
2023-05-02T02:28:40.795Z,5.03
2023-05-02T02:32:40.455Z,4.85
2023-05-02T02:36:40.340Z,5.5
2023-05-02T02:40:40.557Z,5.55
2023-05-02T02:44:40.655Z,5.2
2023-05-02T02:48:40.833Z,5.65
2023-05-02T02:52:40.463Z,5.87
2023-05-02T02:56:40.473Z,6.32
2023-05-02T03:00:40.582Z,6
2023-05-02T03:04:40.641Z,5.95
2023-05-02T03:08:40.569Z,6.4
2023-05-02T03:12:40.557Z,6.5
2023-05-02T03:16:40.406Z,5.35
2023-05-02T03:20:40.661Z,6.4
2023-05-02T03:24:40.310Z,5.6
2023-05-02T03:28:40.316Z,6.45
2023-05-02T03:32:40.666Z,6.18
2023-05-02T03:36:40.504Z,5.75
2023-05-02T03:40:40.509Z,6.2
2023-05-02T03:44:40.799Z,5.7
2023-05-02T03:48:40.546Z,7.4
2023-05-02T03:52:40.443Z,7.35
2023-05-02T03:56:42.643Z,6.7
2023-05-02T04:00:40.892Z,7.3
2023-05-02T04:04:40.970Z,7.3
2023-05-02T04:08:40.504Z,6.78
2023-05-02T04:12:40.477Z,6.65
2023-05-02T04:16:40.335Z,6.25
2023-05-02T04:20:41.049Z,6.82
2023-05-02T04:24:40.515Z,6.85
2023-05-02T04:28:40.470Z,7.12
2023-05-02T04:32:40.768Z,7.2
2023-05-02T04:36:40.591Z,6.82
2023-05-02T04:40:41.292Z,7.18
2023-05-02T04:44:40.462Z,6.78
2023-05-02T04:48:40.555Z,7.03
2023-05-02T04:52:40.171Z,6.93
2023-05-02T04:56:40.893Z,6.32
2023-05-02T05:00:40.615Z,5.78
2023-05-02T05:04:40.462Z,6.03
2023-05-02T05:08:40.626Z,6.5
2023-05-02T05:12:40.407Z,5.62
2023-05-02T05:16:40.031Z,7.5
2023-05-02T05:20:40.543Z,5.68
2023-05-02T05:24:41.077Z,5.37
2023-05-02T05:28:40.473Z,4.9
2023-05-02T05:32:40.716Z,5.1
2023-05-02T05:36:40.350Z,4.4
2023-05-02T05:40:40.472Z,4.22
2023-05-02T05:44:40.539Z,4.9
2023-05-02T05:48:40.662Z,3.72
2023-05-02T05:52:40.960Z,4.28
2023-05-02T05:56:40.396Z,4.18
2023-05-02T06:00:40.515Z,3.92
2023-05-02T06:04:40.722Z,3.92
2023-05-02T06:08:40.593Z,3.72
2023-05-02T06:12:40.561Z,4
2023-05-02T06:16:39.896Z,4.05
2023-05-02T06:20:41.171Z,3.5
2023-05-02T06:24:40.659Z,3.47
2023-05-02T06:28:40.149Z,3.62
2023-05-02T06:32:39.814Z,3.22
2023-05-02T06:36:40.685Z,4.07
2023-05-02T06:40:40.835Z,3.28
2023-05-02T06:44:40.491Z,3.6
2023-05-02T06:48:40.614Z,2.83
2023-05-02T06:52:40.481Z,3.12
2023-05-02T06:56:40.614Z,3.22
2023-05-02T07:00:40.882Z,3.25
2023-05-02T07:04:40.410Z,3.22
2023-05-02T07:08:40.632Z,3.7
2023-05-02T07:12:40.144Z,2.67
2023-05-02T07:16:40.590Z,2.83
2023-05-02T07:20:40.528Z,3
2023-05-02T07:24:40.476Z,2.6
2023-05-02T07:28:40.498Z,3.28
2023-05-02T07:32:40.558Z,3.62
2023-05-02T07:36:39.810Z,3
2023-05-02T07:40:41.302Z,3.8
2023-05-02T07:44:40.592Z,3.3
2023-05-02T07:48:41.328Z,3.25
2023-05-02T07:52:40.502Z,3.75
2023-05-02T07:56:39.712Z,3.67
2023-05-02T08:00:41.054Z,3.1
2023-05-02T08:04:41.199Z,3.9
2023-05-02T08:08:40.386Z,3.28
2023-05-02T08:12:40.830Z,2.87
2023-05-02T08:16:40.003Z,3.47
2023-05-02T08:20:41.232Z,3.53
2023-05-02T08:24:40.394Z,3.37
2023-05-02T08:28:40.687Z,3.95
2023-05-02T08:32:40.600Z,3.67
2023-05-02T08:36:40.162Z,3.65
2023-05-02T08:40:43.184Z,4.47
2023-05-02T08:44:40.532Z,3.72
2023-05-02T08:48:40.986Z,4.75
2023-05-02T08:52:40.730Z,5.25
2023-05-02T08:56:40.549Z,4.93
2023-05-02T09:00:40.683Z,4.6
2023-05-02T09:04:40.347Z,5.15
2023-05-02T09:08:40.441Z,5.07
2023-05-02T09:12:40.541Z,4.6
2023-05-02T09:16:40.600Z,4.93
2023-05-02T09:20:40.707Z,5.7
2023-05-02T09:24:40.433Z,4.5
2023-05-02T09:28:40.563Z,5.37
2023-05-02T09:32:40.293Z,5.32
2023-05-02T09:36:40.596Z,6.1
2023-05-02T09:40:40.765Z,5.97
2023-05-02T09:44:40.512Z,7.22
2023-05-02T09:48:40.544Z,5
2023-05-02T09:52:40.558Z,5.05
2023-05-02T09:56:40.370Z,5.4
2023-05-02T10:00:40.610Z,5.82
2023-05-02T10:04:40.722Z,6.07
2023-05-02T10:08:40.882Z,4.97
2023-05-02T10:12:39.634Z,5.55
2023-05-02T10:16:39.502Z,5.45
2023-05-02T10:20:40.599Z,5.68
2023-05-02T10:24:40.813Z,5.4
2023-05-02T10:28:40.405Z,4.22
2023-05-02T10:32:39.943Z,5.45
2023-05-02T10:36:41.216Z,5.32
2023-05-02T10:40:40.675Z,4.55
2023-05-02T10:44:40.685Z,4.55
2023-05-02T10:48:40.463Z,5.55
2023-05-02T10:52:40.985Z,5.18
2023-05-02T10:56:40.290Z,5.65
2023-05-02T11:00:39.647Z,4.3
2023-05-02T11:04:41.029Z,4.97
2023-05-02T11:08:40.491Z,5.05
2023-05-02T11:12:40.555Z,5.25
2023-05-02T11:16:40.591Z,6
2023-05-02T11:20:40.595Z,4.47
2023-05-02T11:24:40.614Z,5.7
2023-05-02T11:28:40.543Z,4.78
2023-05-02T11:32:40.674Z,4.87
2023-05-02T11:36:40.698Z,5.1
2023-05-02T11:40:40.321Z,5.53
2023-05-02T11:44:40.414Z,5.37
2023-05-02T11:48:41.016Z,5.68
2023-05-02T11:52:40.496Z,5.25
2023-05-02T11:56:40.576Z,5.18
2023-05-02T12:00:40.560Z,5.28
2023-05-02T12:04:40.708Z,5.7
2023-05-02T12:08:40.309Z,5.9
2023-05-02T12:12:40.850Z,3.87
2023-05-02T12:16:40.370Z,4.87
2023-05-02T12:20:40.640Z,4
2023-05-02T12:24:40.448Z,5.22
2023-05-02T12:28:40.188Z,4.57
2023-05-02T12:32:41.143Z,4.93
2023-05-02T12:36:39.742Z,4
2023-05-02T12:40:41.298Z,5.55
2023-05-02T12:44:40.572Z,5.47
2023-05-02T12:48:40.587Z,4.28
2023-05-02T12:52:40.448Z,3.8
2023-05-02T12:56:40.563Z,3.47
2023-05-02T13:00:40.591Z,4.45
2023-05-02T13:04:40.672Z,3.1
2023-05-02T13:08:40.317Z,3.75
2023-05-02T13:12:40.445Z,3.67
2023-05-02T13:16:40.907Z,2.92
2023-05-02T13:20:40.673Z,3.65
2023-05-02T13:24:40.386Z,3.05
2023-05-02T13:28:40.468Z,3.35
2023-05-02T13:32:40.639Z,2.65
2023-05-02T13:36:40.419Z,2.87
2023-05-02T13:40:40.548Z,2.7
2023-05-02T13:44:40.149Z,2.83
2023-05-02T13:48:40.873Z,2.3
2023-05-02T13:52:40.434Z,2.67
2023-05-02T13:56:39.484Z,2.4
2023-05-02T14:00:41.205Z,1.95
2023-05-02T14:04:40.793Z,2.5
2023-05-02T14:08:41.176Z,2.5
2023-05-02T14:12:40.587Z,1.98
2023-05-02T14:16:39.645Z,2.42
2023-05-02T14:20:40.932Z,1.98
2023-05-02T14:24:40.336Z,1.92
2023-05-02T14:28:40.630Z,2.47
2023-05-02T14:32:40.591Z,2.58
2023-05-02T14:36:39.325Z,2.05
2023-05-02T14:40:40.797Z,2.4
2023-05-02T14:44:41.230Z,2
2023-05-02T14:48:40.872Z,2.33
2023-05-02T14:52:40.486Z,2.45
2023-05-02T14:56:40.708Z,2.4
2023-05-02T15:00:40.796Z,2.37
2023-05-02T15:04:40.719Z,3.85
2023-05-02T15:08:40.667Z,2.87
2023-05-02T15:12:40.403Z,2.6
2023-05-02T15:16:40.757Z,2.9
2023-05-02T15:20:40.512Z,2.78
2023-05-02T15:24:41.156Z,2.3
2023-05-02T15:28:40.416Z,2.72
2023-05-02T15:32:40.403Z,2.3
2023-05-02T15:36:40.678Z,2.58
2023-05-02T15:40:40.820Z,2.47
2023-05-02T15:44:40.494Z,2
2023-05-02T15:48:40.527Z,2
2023-05-02T15:52:40.617Z,2.22
2023-05-02T15:56:40.353Z,2.5
2023-05-02T16:00:40.609Z,2.17
2023-05-02T16:04:40.287Z,2.37
2023-05-02T16:08:40.455Z,2.3
2023-05-02T16:12:40.578Z,2.1
2023-05-02T16:16:40.597Z,2.5
2023-05-02T16:20:40.779Z,2.37
2023-05-02T16:24:40.402Z,2.1
2023-05-02T16:28:40.483Z,2.05
2023-05-02T16:32:40.882Z,1.7
2023-05-02T16:36:40.555Z,2.22
2023-05-02T16:40:40.648Z,2.7
2023-05-02T16:44:40.583Z,2.72
2023-05-02T16:48:39.750Z,4.47
2023-05-02T16:52:40.686Z,2.05
2023-05-02T16:56:40.872Z,2
2023-05-02T17:00:40.668Z,2.42
2023-05-02T17:04:40.990Z,1.87
2023-05-02T17:08:40.443Z,2.7
2023-05-02T17:12:40.492Z,2.17
2023-05-02T17:16:40.313Z,2.1
2023-05-02T17:20:41.307Z,2.17
2023-05-02T17:24:40.452Z,1.75
2023-05-02T17:28:40.373Z,1.9
2023-05-02T17:32:40.548Z,2.35
2023-05-02T17:36:40.510Z,2.35
2023-05-02T17:40:41.367Z,1.92
2023-05-02T17:44:40.611Z,2.17
2023-05-02T17:48:40.639Z,3.05
2023-05-02T17:52:40.557Z,2.58
2023-05-02T17:56:39.605Z,2.62
2023-05-02T18:00:41.236Z,3.2
2023-05-02T18:04:40.949Z,2.17
2023-05-02T18:08:40.506Z,2.62
2023-05-02T18:12:40.467Z,2.83
2023-05-02T18:16:40.497Z,2.85
2023-05-02T18:20:40.636Z,3.42
2023-05-02T18:24:40.516Z,3.17
2023-05-02T18:28:41.498Z,3.05
2023-05-02T18:32:41.301Z,2.85
2023-05-02T18:36:40.092Z,2.9
2023-05-02T18:40:40.547Z,3.33
2023-05-02T18:44:40.440Z,3.3
2023-05-02T18:48:40.546Z,3.8
2023-05-02T18:52:40.418Z,3.28
2023-05-02T18:56:40.203Z,3.28
2023-05-02T19:00:41.288Z,2.8
2023-05-02T19:04:41.030Z,3.28
2023-05-02T19:08:40.459Z,2.72
2023-05-02T19:12:41.930Z,2.92
2023-05-02T19:16:40.627Z,2.92
2023-05-02T19:20:40.501Z,2.92
2023-05-02T19:24:40.644Z,3.1
2023-05-02T19:28:40.474Z,4.6
2023-05-02T19:32:40.226Z,3.1
2023-05-02T19:36:40.524Z,3.25
2023-05-02T19:40:40.590Z,2.7
2023-05-02T19:44:40.673Z,2.62
2023-05-02T19:48:40.604Z,2.45
2023-05-02T19:52:40.393Z,2.87
2023-05-02T19:56:40.480Z,3.33
2023-05-02T20:00:40.699Z,3.58
2023-05-02T20:04:40.564Z,2.92
2023-05-02T20:08:40.492Z,2.53
2023-05-02T20:12:40.418Z,2.78
2023-05-02T20:16:40.384Z,2.67
2023-05-02T20:20:40.580Z,3.2
2023-05-02T20:24:40.492Z,2.7
2023-05-02T20:28:40.103Z,3.45
2023-05-02T20:32:41.190Z,3.67
2023-05-02T20:36:40.710Z,3.03
2023-05-02T20:40:41.062Z,3.55
2023-05-02T20:44:40.709Z,2.75
2023-05-02T20:48:40.451Z,3.4
2023-05-02T20:52:40.445Z,3.12
2023-05-02T20:56:40.353Z,4.07
2023-05-02T21:00:41.108Z,3.25
2023-05-02T21:04:41.095Z,4.15
2023-05-02T21:08:40.508Z,3.8
2023-05-02T21:12:40.534Z,3.72
2023-05-02T21:16:41.250Z,3.8
2023-05-02T21:20:40.846Z,3.85
2023-05-02T21:24:40.245Z,4
2023-05-02T21:28:41.056Z,4.97
2023-05-02T21:32:40.600Z,4.82
2023-05-02T21:36:40.533Z,4.43
2023-05-02T21:40:40.556Z,5.13
2023-05-02T21:44:40.409Z,4.5
2023-05-02T21:48:40.531Z,5.57
2023-05-02T21:52:40.577Z,5.5
2023-05-02T21:56:40.467Z,5.3
2023-05-02T22:00:40.899Z,5.33
2023-05-02T22:04:40.459Z,5.93
2023-05-02T22:08:40.464Z,6.2
2023-05-02T22:12:40.849Z,5.77
2023-05-02T22:16:40.656Z,6.47
2023-05-02T22:20:40.511Z,5.2
2023-05-02T22:24:40.643Z,5.07
2023-05-02T22:28:40.521Z,6.97
2023-05-02T22:32:40.609Z,6.2
2023-05-02T22:36:40.484Z,5.83
2023-05-02T22:40:40.635Z,7.13
2023-05-02T22:44:52.942Z,5.7
2023-05-02T22:48:40.528Z,6.07
2023-05-02T22:52:41.201Z,6.03
2023-05-02T22:56:40.573Z,6.33
2023-05-02T23:00:40.705Z,8.53
2023-05-02T23:04:40.601Z,6
2023-05-02T23:08:39.907Z,6.07
2023-05-02T23:12:40.497Z,5.43
2023-05-02T23:16:40.910Z,5.27
2023-05-02T23:20:40.610Z,5.5
2023-05-02T23:24:40.436Z,6.07
2023-05-02T23:28:40.474Z,6.2
2023-05-02T23:32:40.579Z,5.03
2023-05-02T23:36:40.308Z,4.7
2023-05-02T23:40:41.214Z,5.55
2023-05-02T23:44:40.906Z,6.2
2023-05-02T23:48:39.908Z,4.75
2023-05-02T23:52:39.221Z,4.97
2023-05-02T23:56:40.446Z,5.3
